Time;durP1;ratioP1;P1;durP2;ratioP2;P2;SDS_P1;SDS_P2;PMS_P1;PMS_P2;Temp;Humidity;BMP_temperature;BMP_pressure;BME280_temperature;BME280_humidity;BME280_pressure;Samples;Min_cycle;Max_cycle;Signal;HPM_P1;HPM_P2
2021/04/28 00:00:46;;;;;;;28.53;15.93;;;;;;;3.74;70.58;100862.41;125658;1097;104273;-76
2021/04/28 00:03:18;;;;;;;28.43;15.77;;;;;;;3.75;70.56;100867.70;125694;1100;104172;-76
2021/04/28 00:05:46;;;;;;;27.73;15.37;;;;;;;3.76;70.62;100871.23;125662;1099;104167;-75
2021/04/28 00:08:15;;;;;;;27.00;15.10;;;;;;;3.78;70.60;100872.22;125590;1096;104221;-75
2021/04/28 00:10:44;;;;;;;30.93;16.03;;;;;;;3.77;71.18;100871.33;125666;1096;104185;-76
2021/04/28 00:13:15;;;;;;;29.37;15.73;;;;;;;3.78;71.04;100872.22;125640;1096;104264;-76
2021/04/28 00:15:46;;;;;;;28.13;16.73;;;;;;;3.80;70.52;100862.83;125648;1096;104239;-75
2021/04/28 00:18:16;;;;;;;27.30;15.90;;;;;;;3.81;71.26;100864.64;125589;1098;104300;-76
2021/04/28 00:20:46;;;;;;;31.27;16.87;;;;;;;3.75;70.81;100870.30;125612;1097;104163;-76
2021/04/28 00:23:15;;;;;;;32.17;18.20;;;;;;;3.73;71.01;100874.50;125617;1098;104172;-76
2021/04/28 00:25:44;;;;;;;29.90;16.17;;;;;;;3.71;71.65;100867.39;125684;1099;104175;-76
2021/04/28 00:28:14;;;;;;;30.50;17.50;;;;;;;3.68;71.06;100870.70;125641;1096;104175;-75
2021/04/28 00:30:43;;;;;;;29.03;16.50;;;;;;;3.65;71.49;100872.19;125621;1096;104305;-76
2021/04/28 00:33:12;;;;;;;27.97;16.20;;;;;;;3.64;71.10;100865.19;125633;1096;104200;-76
2021/04/28 00:35:41;;;;;;;28.43;15.23;;;;;;;3.65;71.50;100864.41;125645;1096;104197;-76
2021/04/28 00:38:10;;;;;;;26.97;14.67;;;;;;;3.66;70.97;100874.89;125633;1096;104177;-76
2021/04/28 00:40:41;;;;;;;27.23;14.67;;;;;;;3.67;71.09;100875.78;125693;1099;104300;-76
2021/04/28 00:43:10;;;;;;;24.20;14.83;;;;;;;3.67;71.48;100873.19;125678;1099;104354;-75
2021/04/28 00:45:39;;;;;;;28.43;15.37;;;;;;;3.61;71.26;100878.84;125552;1099;104210;-76
2021/04/28 00:48:10;;;;;;;27.27;15.30;;;;;;;3.59;71.32;100876.14;125595;1096;104242;-75
2021/04/28 00:50:41;;;;;;;28.57;16.73;;;;;;;3.53;70.66;100880.01;125606;1099;104153;-75
2021/04/28 00:53:13;;;;;;;28.20;16.53;;;;;;;3.42;70.83;100885.33;125668;1096;104177;-76
2021/04/28 00:55:42;;;;;;;31.17;17.23;;;;;;;3.34;70.95;100883.91;125675;1096;104220;-76
2021/04/28 00:58:12;;;;;;;28.37;17.50;;;;;;;3.27;71.43;100885.95;125607;1096;104201;-76
2021/04/28 01:00:42;;;;;;;31.37;17.83;;;;;;;3.22;71.58;100885.63;125668;1099;104173;-76
2021/04/28 01:03:13;;;;;;;31.53;17.63;;;;;;;3.13;70.86;100885.89;125622;1099;104294;-76
2021/04/28 01:05:42;;;;;;;33.93;18.40;;;;;;;3.04;71.03;100888.70;125677;1099;104663;-76
2021/04/28 01:08:15;;;;;;;31.80;17.57;;;;;;;2.99;71.48;100889.16;125584;1096;104165;-76
2021/04/28 01:10:45;;;;;;;30.60;16.57;;;;;;;2.95;71.53;100887.16;125652;1096;104217;-76
2021/04/28 01:13:14;;;;;;;28.50;16.33;;;;;;;2.91;70.74;100888.59;125659;1096;104293;-76
2021/04/28 01:15:43;;;;;;;27.67;16.07;;;;;;;2.88;70.91;100885.78;125651;1096;104654;-76
2021/04/28 01:18:16;;;;;;;29.40;16.35;;;;;;;2.89;71.81;100890.19;125617;1096;104171;-76
2021/04/28 01:20:46;;;;;;;27.83;16.40;;;;;;;2.97;71.27;100890.75;125643;1099;104318;-76
2021/04/28 01:23:16;;;;;;;32.93;17.40;;;;;;;3.01;71.65;100892.78;125632;1099;104274;-76
2021/04/28 01:25:47;;;;;;;32.40;18.53;;;;;;;3.03;71.32;100893.78;125678;1099;104181;-75
2021/04/28 01:28:21;;;;;;;31.33;18.93;;;;;;;3.03;71.19;100889.48;125602;1099;104175;-76
2021/04/28 01:30:59;;;;;;;31.95;17.65;;;;;;;3.01;71.92;100885.00;125656;1096;104290;-76
2021/04/28 01:33:32;;;;;;;35.50;19.13;;;;;;;2.95;71.43;100879.38;125607;1099;104322;-76
2021/04/28 01:36:02;;;;;;;34.03;19.50;;;;;;;2.91;71.48;100879.94;125628;1099;104757;-76
2021/04/28 01:38:37;;;;;;;33.80;19.07;;;;;;;2.87;72.13;100879.71;125571;1099;104296;-76
2021/04/28 01:41:06;;;;;;;31.53;18.57;;;;;;;2.85;71.17;100877.78;125646;1098;104172;-76
2021/04/28 01:43:40;;;;;;;33.20;18.83;;;;;;;2.83;71.49;100882.86;125639;1099;104168;-76
2021/04/28 01:46:11;;;;;;;33.10;18.40;;;;;;;2.80;71.57;100882.63;125672;1099;104653;-76
2021/04/28 01:48:41;;;;;;;32.10;17.17;;;;;;;2.69;71.06;100880.95;125623;1099;104197;-76
2021/04/28 01:51:12;;;;;;;37.87;19.33;;;;;;;2.54;70.90;100878.16;125655;1099;104294;-76
2021/04/28 01:53:43;;;;;;;40.33;18.27;;;;;;;2.41;71.19;100865.97;125635;1099;104171;-76
2021/04/28 01:56:12;;;;;;;42.03;19.60;;;;;;;2.37;71.33;100861.38;125643;1099;104182;-76
2021/04/28 01:59:02;;;;;;;51.33;19.07;;;;;;;2.32;71.53;100860.11;125664;1099;104296;-76
2021/04/28 02:01:45;;;;;;;61.17;20.57;;;;;;;2.27;71.36;100856.28;125640;1099;104178;-76
2021/04/28 02:04:17;;;;;;;68.37;20.57;;;;;;;2.20;71.55;100862.70;125664;1099;104271;-76
2021/04/28 02:06:47;;;;;;;40.90;20.53;;;;;;;2.13;71.44;100871.67;125665;1098;104344;-76
2021/04/28 02:09:16;;;;;;;62.53;19.63;;;;;;;2.13;71.66;100865.60;125635;1099;104166;-76
2021/04/28 02:11:46;;;;;;;36.83;17.40;;;;;;;2.12;71.86;100869.89;125693;1099;104239;-76
2021/04/28 02:14:17;;;;;;;32.10;17.47;;;;;;;2.19;71.46;100867.77;125589;1099;104370;-76
2021/04/28 02:17:03;;;;;;;33.03;17.60;;;;;;;2.24;71.96;100869.89;125673;1099;104159;-76
2021/04/28 02:19:37;;;;;;;31.20;15.63;;;;;;;2.27;71.62;100861.45;125616;1099;104184;-76
2021/04/28 02:22:07;;;;;;;30.10;14.27;;;;;;;2.26;71.54;100864.83;125662;1099;104194;-76
2021/04/28 02:24:53;;;;;;;32.60;13.40;;;;;;;2.23;71.39;100869.77;125662;1099;104290;-76
2021/04/28 02:27:31;;;;;;;31.10;13.10;;;;;;;2.20;71.44;100865.29;125628;1098;104437;-76
2021/04/28 02:30:00;;;;;;;27.60;13.73;;;;;;;2.12;71.32;100856.95;125635;1099;104160;-76
2021/04/28 02:32:29;;;;;;;33.70;12.87;;;;;;;2.05;71.50;100856.37;125642;1097;104296;-76
2021/04/28 02:35:14;;;;;;;46.87;13.23;;;;;;;1.98;71.86;100855.91;125670;1099;104238;-76
2021/04/28 02:37:55;;;;;;;38.70;14.17;;;;;;;1.95;71.95;100853.08;125649;1096;104174;-76
2021/04/28 02:40:43;;;;;;;42.70;14.50;;;;;;;1.96;71.91;100861.73;125603;1096;104284;-76
2021/04/28 02:43:12;;;;;;;36.47;15.37;;;;;;;1.99;72.26;100864.56;125650;1099;104158;-76
2021/04/28 02:45:45;;;;;;;30.23;14.63;;;;;;;2.00;71.90;100868.07;125622;1099;104176;-76
2021/04/28 02:48:15;;;;;;;29.10;15.00;;;;;;;2.07;72.27;100875.49;125640;1099;104182;-76
2021/04/28 02:50:57;;;;;;;37.93;15.07;;;;;;;2.13;72.27;100878.55;125603;1096;104198;-76
2021/04/28 02:53:29;;;;;;;27.03;13.67;;;;;;;2.16;71.98;100856.37;125621;1096;104274;-76
2021/04/28 02:55:59;;;;;;;31.13;14.57;;;;;;;2.21;72.58;100850.64;125649;1096;105002;-76
2021/04/28 02:58:29;;;;;;;31.97;14.43;;;;;;;2.27;72.36;100851.99;125685;1096;104287;-76
2021/04/28 03:01:08;;;;;;;39.00;15.73;;;;;;;2.34;72.32;100869.80;125624;1096;104194;-75
2021/04/28 03:03:40;;;;;;;30.97;15.10;;;;;;;2.40;71.96;100865.85;125627;1099;104245;-76
2021/04/28 03:06:16;;;;;;;31.87;15.37;;;;;;;2.43;72.25;100863.49;125593;1099;104178;-76
2021/04/28 03:08:56;;;;;;;41.33;16.70;;;;;;;2.41;72.64;100855.61;125613;1099;104293;-77
2021/04/28 03:11:26;;;;;;;32.07;16.47;;;;;;;2.46;72.35;100863.72;125564;1096;104332;-77
2021/04/28 03:13:55;;;;;;;34.63;17.13;;;;;;;2.49;72.21;100857.09;125662;1096;104299;-77
2021/04/28 03:16:25;;;;;;;33.53;16.93;;;;;;;2.53;72.43;100868.58;125660;1096;104584;-77
2021/04/28 03:20:30;;;;;;;36.57;18.43;;;;;;;2.66;72.83;100867.78;124979;1102;104704;-75
2021/04/28 03:22:59;;;;;;;36.53;18.67;;;;;;;2.75;73.02;100873.63;124837;1102;104213;-75
2021/04/28 03:25:28;;;;;;;39.73;19.50;;;;;;;2.81;72.69;100871.48;124885;1102;104197;-75
2021/04/28 03:28:00;;;;;;;39.13;19.10;;;;;;;2.90;72.75;100872.94;124928;1102;104181;-76
2021/04/28 03:30:29;;;;;;;48.80;22.35;;;;;;;2.93;73.23;100876.67;124847;1102;104248;-76
2021/04/28 03:32:57;;;;;;;41.83;21.33;;;;;;;2.98;73.03;100887.38;124888;1102;104245;-75
2021/04/28 03:35:43;;;;;;;44.07;21.13;;;;;;;3.07;72.61;100888.04;124896;1102;104182;-76
2021/04/28 03:38:32;;;;;;;42.80;21.50;;;;;;;3.16;72.60;100888.67;124849;1102;104213;-76
2021/04/28 03:41:02;;;;;;;41.80;19.00;;;;;;;3.23;72.61;100887.44;124837;1103;104181;-76
2021/04/28 03:43:31;;;;;;;31.87;18.40;;;;;;;3.29;73.31;100892.14;124829;1102;104185;-76
2021/04/28 03:46:00;;;;;;;36.23;18.37;;;;;;;3.33;72.90;100900.25;124847;1102;104190;-76
2021/04/28 03:48:38;;;;;;;31.47;16.87;;;;;;;3.33;72.76;100901.95;124840;1102;104204;-76
2021/04/28 03:51:06;;;;;;;36.90;18.55;;;;;;;3.33;72.43;100910.63;124679;1103;104188;-76
2021/04/28 03:53:42;;;;;;;35.45;19.17;;;;;;;3.30;72.38;100910.41;124880;1102;104291;-75
2021/04/28 03:56:12;;;;;;;36.43;19.67;;;;;;;3.30;72.33;100913.00;124611;1102;104312;-75
2021/04/28 03:58:42;;;;;;;36.30;20.33;;;;;;;3.28;72.79;100924.08;124859;1102;104181;-76
2021/04/28 04:01:15;;;;;;;41.23;22.00;;;;;;;3.25;72.48;100927.34;124889;1102;104223;-76
2021/04/28 04:03:44;;;;;;;38.60;22.93;;;;;;;3.22;72.30;100932.30;124868;1102;104354;-75
2021/04/28 04:06:32;;;;;;;41.73;22.37;;;;;;;3.21;72.79;100926.23;124645;1102;104198;-76
2021/04/28 04:09:12;;;;;;;42.87;23.10;;;;;;;3.24;72.52;100926.45;124863;1102;104211;-75
2021/04/28 04:11:44;;;;;;;46.10;23.20;;;;;;;3.28;72.66;100932.75;124871;1101;104220;-75
2021/04/28 04:14:17;;;;;;;;;;;;;;;3.32;72.59;100920.89;124885;1102;104200;-75
2021/04/28 04:16:49;;;;;;;41.20;21.87;;;;;;;3.33;72.64;100913.22;124891;1102;104184;-76
2021/04/28 04:19:18;;;;;;;46.27;23.43;;;;;;;3.37;72.66;100909.17;124847;1102;104207;-76
2021/04/28 04:22:02;;;;;;;44.50;21.93;;;;;;;3.46;73.02;100907.23;124857;1102;104165;-76
2021/04/28 04:24:51;;;;;;;45.47;22.20;;;;;;;3.55;72.59;100910.47;124893;1102;104306;-77
2021/04/28 04:27:20;;;;;;;40.77;22.83;;;;;;;3.62;72.49;100913.50;124924;1102;104194;-77
2021/04/28 04:30:05;;;;;;;47.80;23.60;;;;;;;3.69;72.70;100910.52;124942;1102;104310;-76
2021/04/28 04:32:37;;;;;;;44.07;22.20;;;;;;;3.79;73.25;100920.76;124840;1102;104190;-76
2021/04/28 04:35:22;;;;;;;44.43;22.43;;;;;;;3.86;72.68;100930.75;124852;1102;104178;-77
2021/04/28 04:38:02;;;;;;;43.87;23.70;;;;;;;3.90;72.40;100937.09;124897;1102;104217;-76
2021/04/28 04:40:43;;;;;;;48.67;27.03;;;;;;;3.93;72.28;100935.59;124868;1102;104299;-76
2021/04/28 04:43:23;;;;;;;42.40;23.67;;;;;;;4.03;72.23;100936.23;124914;1101;104302;-76
2021/04/28 04:46:06;;;;;;;40.78;23.62;;;;;;;4.16;72.49;100941.48;124878;1103;104175;-77
2021/04/28 04:48:35;;;;;;;45.60;21.90;;;;;;;4.28;72.99;100947.48;124901;1102;104291;-77
2021/04/28 04:51:04;;;;;;;39.60;22.20;;;;;;;4.48;73.16;100934.95;124627;1102;104300;-75
2021/04/28 04:53:33;;;;;;;45.67;25.03;;;;;;;4.67;73.06;100947.47;124841;1102;104306;-75
2021/04/28 04:56:02;;;;;;;55.47;28.83;;;;;;;4.80;72.89;100956.97;124838;1102;104182;-76
2021/04/28 04:58:31;;;;;;;47.70;24.60;;;;;;;4.84;72.96;100956.38;124895;1102;104173;-75
2021/04/28 05:01:00;;;;;;;38.77;22.00;;;;;;;4.84;72.66;100964.19;124759;1102;104185;-76
2021/04/28 05:03:29;;;;;;;44.03;22.47;;;;;;;4.85;72.44;100964.28;124654;1102;104227;-75
2021/04/28 05:06:00;;;;;;;39.40;22.03;;;;;;;4.89;72.46;100967.98;125584;1100;104181;-75
2021/04/28 05:08:29;;;;;;;44.77;24.40;;;;;;;4.97;72.28;100971.09;125601;1099;104171;-76
2021/04/28 05:10:58;;;;;;;39.60;21.90;;;;;;;5.07;72.20;100965.70;125636;1099;104181;-75
2021/04/28 05:13:26;;;;;;;37.50;21.53;;;;;;;5.18;72.02;100974.20;125506;1099;104176;-75
2021/04/28 05:15:55;;;;;;;37.07;19.27;;;;;;;5.27;72.29;100974.80;125633;1099;104172;-76
2021/04/28 05:18:24;;;;;;;38.07;19.23;;;;;;;5.33;72.22;100980.41;125575;1099;104175;-76
2021/04/28 05:20:53;;;;;;;32.17;18.50;;;;;;;5.36;72.13;100984.88;125595;1099;104220;-75
2021/04/28 05:23:22;;;;;;;35.37;20.90;;;;;;;5.34;72.43;100995.19;125571;1099;104195;-76
2021/04/28 05:25:57;;;;;;;34.57;19.13;;;;;;;5.30;72.38;100990.61;125585;1099;104174;-76
2021/04/28 05:28:26;;;;;;;34.57;19.80;;;;;;;5.26;72.07;100993.80;125595;1099;104293;-75
2021/04/28 05:30:55;;;;;;;38.43;21.23;;;;;;;5.24;72.05;101005.83;125594;1099;104190;-75
2021/04/28 05:33:24;;;;;;;34.93;19.90;;;;;;;5.24;71.82;100998.02;125528;1099;104169;-75
2021/04/28 05:35:52;;;;;;;34.43;17.70;;;;;;;5.26;72.00;100999.01;125603;1099;104179;-75
2021/04/28 05:38:22;;;;;;;35.93;17.93;;;;;;;5.29;71.79;100999.20;125534;1099;104296;-77
2021/04/28 05:40:51;;;;;;;39.33;19.20;;;;;;;5.32;72.00;100994.20;124851;1099;104309;-77
2021/04/28 05:43:20;;;;;;;40.00;20.13;;;;;;;5.44;72.01;101003.59;125539;1099;104175;-77
2021/04/28 05:45:51;;;;;;;39.13;20.80;;;;;;;5.57;72.17;101000.98;125711;1099;104210;-76
2021/04/28 05:48:20;;;;;;;38.30;21.87;;;;;;;5.72;72.19;100998.47;126274;1099;104280;-78
2021/04/28 05:50:49;;;;;;;41.13;23.40;;;;;;;5.89;72.41;101002.10;125570;1099;104187;-75
2021/04/28 05:53:22;;;;;;;48.63;27.20;;;;;;;6.06;72.22;101004.11;125534;1099;104178;-76
2021/04/28 05:55:51;;;;;;;51.37;31.47;;;;;;;6.22;71.76;101000.73;125602;1099;104201;-76
2021/04/28 05:58:20;;;;;;;67.33;39.63;;;;;;;6.35;71.89;100999.77;125013;1099;104227;-76
2021/04/28 06:00:49;;;;;;;54.13;29.83;;;;;;;6.47;71.99;101007.44;125563;1099;104297;-75
2021/04/28 06:03:18;;;;;;;45.90;25.40;;;;;;;6.59;71.89;101015.08;124783;1099;104171;-76
2021/04/28 06:05:46;;;;;;;42.57;23.30;;;;;;;6.71;71.68;101023.63;124929;1102;104660;-75
2021/04/28 06:08:15;;;;;;;36.43;21.40;;;;;;;6.84;71.62;101012.25;125545;1099;104327;-76
2021/04/28 06:10:44;;;;;;;45.87;24.77;;;;;;;6.98;71.58;101011.34;125640;1099;104224;-75
2021/04/28 06:13:13;;;;;;;44.57;23.23;;;;;;;7.13;71.57;101013.02;125555;1099;104184;-76
2021/04/28 06:15:42;;;;;;;50.53;25.47;;;;;;;7.21;71.32;101014.36;125534;1099;104277;-76
2021/04/28 06:18:11;;;;;;;43.73;25.47;;;;;;;7.31;71.37;101011.47;125551;1099;104239;-75
2021/04/28 06:20:40;;;;;;;38.17;21.90;;;;;;;7.36;71.02;101009.13;125570;1099;104169;-76
2021/04/28 06:23:09;;;;;;;35.17;17.87;;;;;;;7.41;71.47;101007.66;125614;1099;104191;-75
2021/04/28 06:25:39;;;;;;;33.77;16.63;;;;;;;7.49;71.01;101013.31;125611;1097;104284;-75
2021/04/28 06:28:08;;;;;;;33.40;16.80;;;;;;;7.54;70.23;101004.94;125575;1099;104178;-76
2021/04/28 06:30:37;;;;;;;28.60;16.07;;;;;;;7.50;70.52;101010.80;125605;1099;104248;-76
2021/04/28 06:33:06;;;;;;;30.20;15.23;;;;;;;7.62;70.48;101007.98;125533;1099;104300;-75
2021/04/28 06:35:36;;;;;;;29.03;16.20;;;;;;;7.81;70.57;101009.89;125562;1099;104172;-76
2021/04/28 06:38:05;;;;;;;29.73;15.57;;;;;;;7.98;70.09;101007.28;125567;1099;104287;-77
2021/04/28 06:40:35;;;;;;;30.90;16.80;;;;;;;8.08;70.67;101006.97;125570;1099;104175;-76
2021/04/28 06:43:07;;;;;;;34.37;16.00;;;;;;;8.18;69.97;101013.58;125558;1099;104207;-77
2021/04/28 06:45:36;;;;;;;30.37;16.50;;;;;;;8.13;69.48;101009.84;125567;1099;108604;-76
2021/04/28 06:48:07;;;;;;;33.00;16.57;;;;;;;8.06;69.37;101004.27;125632;1099;104291;-76
2021/04/28 06:50:36;;;;;;;32.33;16.87;;;;;;;8.05;69.54;101015.53;125683;1099;104255;-77
2021/04/28 06:53:05;;;;;;;28.07;15.17;;;;;;;8.10;69.67;101011.48;125519;1099;104341;-76
2021/04/28 06:55:34;;;;;;;33.93;18.00;;;;;;;8.10;69.60;101013.17;125598;1099;104169;-75
2021/04/28 06:58:03;;;;;;;33.35;16.85;;;;;;;8.12;69.42;101023.70;125564;1099;104595;-75
2021/04/28 07:00:32;;;;;;;34.90;16.93;;;;;;;8.16;69.40;101016.12;125630;1099;104188;-75
2021/04/28 07:03:01;;;;;;;25.40;13.27;;;;;;;8.22;69.31;101019.06;125600;1099;104322;-75
2021/04/28 07:05:30;;;;;;;41.20;20.47;;;;;;;8.23;69.22;101015.64;125506;1099;104152;-75
2021/04/28 07:07:59;;;;;;;38.00;19.15;;;;;;;8.26;68.87;101013.19;125436;1099;104165;-75
2021/04/28 07:10:28;;;;;;;36.77;18.63;;;;;;;8.26;69.08;101018.42;125497;1099;104232;-75
2021/04/28 07:13:07;;;;;;;35.90;19.20;;;;;;;8.34;68.94;101010.09;125487;1099;104264;-75
2021/04/28 07:15:36;;;;;;;43.60;21.40;;;;;;;8.50;69.43;101015.33;125436;1099;104320;-76
2021/04/28 07:18:05;;;;;;;32.93;15.57;;;;;;;8.61;68.86;101021.12;125576;1099;104290;-76
2021/04/28 07:20:35;;;;;;;32.17;16.90;;;;;;;8.69;69.25;101018.90;125522;1099;104280;-75
2021/04/28 07:23:04;;;;;;;27.13;13.20;;;;;;;8.73;68.36;101020.86;125505;1097;104172;-75
2021/04/28 07:25:34;;;;;;;28.47;12.27;;;;;;;8.68;68.18;101012.78;125529;1099;104235;-76
2021/04/28 07:28:04;;;;;;;25.90;12.40;;;;;;;8.65;67.95;101017.85;125755;1099;104171;-76
2021/04/28 07:30:34;;;;;;;27.00;12.63;;;;;;;8.63;68.64;101020.39;125483;1099;104169;-76
2021/04/28 07:33:05;;;;;;;24.13;11.97;;;;;;;8.65;68.42;101025.70;125475;1098;104241;-76
2021/04/28 07:35:34;;;;;;;25.27;11.83;;;;;;;8.67;68.11;101024.05;125513;1099;104178;-75
2021/04/28 07:38:03;;;;;;;24.60;12.07;;;;;;;8.75;68.04;101027.06;125504;1099;104307;-74
2021/04/28 07:40:33;;;;;;;23.77;12.43;;;;;;;8.85;67.76;101028.42;125474;1099;104185;-75
2021/04/28 07:43:03;;;;;;;28.53;13.23;;;;;;;8.85;67.45;101029.34;125500;1099;104345;-74
2021/04/28 07:45:41;;;;;;;26.67;11.23;;;;;;;8.89;67.53;101023.42;125546;1099;104291;-75
2021/04/28 07:48:14;;;;;;;19.77;10.50;;;;;;;8.83;67.30;101027.46;125588;1099;104156;-76
2021/04/28 07:50:45;;;;;;;21.20;11.23;;;;;;;8.70;67.62;101012.86;125475;1099;104185;-76
2021/04/28 07:53:22;;;;;;;20.57;10.73;;;;;;;8.56;66.78;101022.61;125502;1099;104252;-77
2021/04/28 07:55:54;;;;;;;21.27;10.57;;;;;;;8.48;67.15;101023.90;125442;1098;104319;-77
2021/04/28 07:58:32;;;;;;;22.30;12.05;;;;;;;8.45;67.07;101037.73;125562;1099;104217;-77
2021/04/28 08:01:01;;;;;;;27.27;13.23;;;;;;;8.45;66.96;101036.01;125608;1099;104213;-77
2021/04/28 08:03:30;;;;;;;22.43;11.83;;;;;;;8.55;66.91;101040.00;125550;1099;104280;-76
2021/04/28 08:05:59;;;;;;;21.27;11.53;;;;;;;8.66;67.38;101045.80;125565;1099;104313;-76
2021/04/28 08:08:30;;;;;;;26.27;12.53;;;;;;;8.71;67.49;101048.64;125585;1099;104296;-77
2021/04/28 08:10:59;;;;;;;25.07;12.30;;;;;;;8.75;66.98;101045.38;125606;1099;104181;-77
2021/04/28 08:13:31;;;;;;;25.73;11.83;;;;;;;8.76;67.12;101048.08;125578;1099;104172;-76
2021/04/28 08:16:01;;;;;;;22.97;10.83;;;;;;;8.81;66.98;101040.47;125532;1099;102279;-75
2021/04/28 08:18:30;;;;;;;20.37;9.43;;;;;;;8.73;66.39;101044.41;125570;1099;104280;-75
2021/04/28 08:20:59;;;;;;;18.67;10.23;;;;;;;8.59;66.53;101047.20;125565;1099;104290;-76
2021/04/28 08:23:30;;;;;;;18.33;9.67;;;;;;;8.50;66.38;101051.06;125511;1099;104288;-76
2021/04/28 08:26:01;;;;;;;21.47;10.90;;;;;;;8.46;66.45;101042.12;125573;1099;104300;-75
2021/04/28 08:28:31;;;;;;;22.30;10.43;;;;;;;8.49;66.06;101041.41;125639;1099;104178;-76
2021/04/28 08:31:00;;;;;;;21.40;11.30;;;;;;;8.54;66.30;101045.15;125559;1099;104188;-77
2021/04/28 08:33:30;;;;;;;25.37;10.87;;;;;;;8.59;66.36;101039.34;125521;1098;104178;-77
2021/04/28 08:35:59;;;;;;;21.10;11.30;;;;;;;8.54;65.63;101046.06;125479;1099;104226;-76
2021/04/28 08:38:27;;;;;;;21.13;10.07;;;;;;;8.53;66.53;101040.76;125587;1099;104198;-77
2021/04/28 08:41:06;;;;;;;21.47;11.00;;;;;;;8.53;66.47;101032.91;125634;1099;104171;-77
2021/04/28 08:43:39;;;;;;;20.97;10.60;;;;;;;8.53;65.96;101036.41;125776;1099;104252;-77
2021/04/28 08:46:08;;;;;;;21.70;11.35;;;;;;;8.61;66.61;101035.09;125512;1099;104166;-77
2021/04/28 08:48:37;;;;;;;20.03;10.27;;;;;;;8.70;65.50;101037.30;125608;1099;104284;-76
2021/04/28 08:51:06;;;;;;;21.00;9.63;;;;;;;8.77;65.62;101038.50;125507;1099;104159;-77
2021/04/28 08:53:37;;;;;;;20.30;10.63;;;;;;;8.84;65.51;101030.16;125536;1099;104172;-76
2021/04/28 08:56:07;;;;;;;24.03;11.60;;;;;;;8.94;65.59;101026.28;125541;1099;104232;-75
2021/04/28 08:58:37;;;;;;;18.53;8.70;;;;;;;9.03;65.58;101028.48;125558;1099;104424;-77
2021/04/28 09:01:07;;;;;;;17.13;8.30;;;;;;;9.00;65.70;101030.09;125630;1099;104195;-76
2021/04/28 09:03:42;;;;;;;21.73;10.20;;;;;;;8.98;65.23;101036.98;125560;1099;104236;-78
2021/04/28 09:06:29;;;;;;;17.60;9.00;;;;;;;9.06;65.55;101028.62;125605;1099;104166;-78
2021/04/28 09:09:03;;;;;;;22.23;10.67;;;;;;;9.16;65.16;101030.87;125594;1099;104270;-78
2021/04/28 09:11:38;;;;;;;25.80;11.93;;;;;;;9.23;65.17;101034.71;125553;1099;104323;-76
2021/04/28 09:14:15;;;;;;;23.30;11.40;;;;;;;9.21;64.54;101028.48;125598;1099;104645;-76
2021/04/28 09:17:00;;;;;;;24.73;11.47;;;;;;;9.25;65.09;101031.33;125513;1099;104252;-76
2021/04/28 09:19:54;;;;;;;20.83;10.70;;;;;;;9.34;64.76;101028.27;125581;1097;104207;-77
2021/04/28 09:22:33;;;;;;;20.03;10.30;;;;;;;9.39;65.21;101026.77;125616;1099;104195;-77
2021/04/28 09:25:34;;;;;;;23.13;11.07;;;;;;;9.48;64.59;101027.22;125458;1099;104159;-76
2021/04/28 09:28:38;;;;;;;;;;;;;;;9.58;63.62;101028.55;126005;1099;104194;-74
2021/04/28 09:31:15;;;;;;;19.53;7.50;;;;;;;9.66;63.67;101028.91;125522;1099;104162;-76
2021/04/28 09:33:58;;;;;;;15.47;7.93;;;;;;;9.82;64.06;101027.95;125542;1098;104210;-74
2021/04/28 09:36:30;;;;;;;18.47;8.37;;;;;;;9.97;63.89;101020.80;125534;1099;104288;-76
2021/04/28 09:39:07;;;;;;;15.97;7.77;;;;;;;10.08;64.01;101022.19;125573;1099;107101;-76
2021/04/28 09:41:39;;;;;;;14.17;7.83;;;;;;;10.21;64.04;101017.50;125589;1099;104166;-76
2021/04/28 09:44:27;;;;;;;14.77;7.40;;;;;;;10.19;63.66;101013.89;125571;1099;104306;-76
2021/04/28 09:46:58;;;;;;;18.10;8.53;;;;;;;10.22;63.27;101014.03;125641;1098;104171;-78
2021/04/28 09:49:41;;;;;;;17.37;7.97;;;;;;;10.23;63.48;101014.10;125610;1099;104242;-76
2021/04/28 09:52:11;;;;;;;13.73;6.80;;;;;;;10.28;63.00;101005.55;125503;1099;104238;-76
2021/04/28 09:54:43;;;;;;;12.45;6.50;;;;;;;10.22;62.57;101001.84;125633;1099;104181;-76
2021/04/28 09:57:38;;;;;;;12.03;6.17;;;;;;;10.24;63.53;101002.80;125480;1099;104322;-77
2021/04/28 10:00:20;;;;;;;15.00;7.17;;;;;;;10.30;63.09;101002.19;125445;1099;104153;-78
2021/04/28 10:02:56;;;;;;;14.90;6.97;;;;;;;10.35;62.70;100999.80;125527;1099;104290;-78
2021/04/28 10:05:29;;;;;;;10.90;5.90;;;;;;;10.34;61.71;101003.24;125464;1099;104211;-77
2021/04/28 10:08:13;;;;;;;11.53;5.80;;;;;;;10.17;61.84;101007.69;125534;1099;104113;-76
2021/04/28 10:10:43;;;;;;;15.53;6.90;;;;;;;10.17;62.25;100995.47;125618;1099;104221;-75
2021/04/28 10:13:13;;;;;;;16.50;6.73;;;;;;;10.24;62.36;100994.92;125551;1098;104293;-75
2021/04/28 10:15:44;;;;;;;13.77;6.77;;;;;;;10.32;61.88;100997.01;125530;1099;104325;-76
2021/04/28 10:18:19;;;;;;;12.50;6.83;;;;;;;10.30;61.75;100999.56;125585;1099;104198;-76
2021/04/28 10:20:50;;;;;;;13.63;6.10;;;;;;;10.31;62.16;101001.33;125574;1099;104178;-75
2021/04/28 10:23:24;;;;;;;14.30;6.60;;;;;;;10.30;62.22;101003.89;125609;1098;104245;-75
2021/04/28 10:25:54;;;;;;;10.53;5.60;;;;;;;10.37;61.83;101008.62;125664;1099;104169;-78
2021/04/28 10:28:24;;;;;;;9.57;5.60;;;;;;;10.39;59.09;101012.20;125610;1098;104239;-77
2021/04/28 10:30:54;;;;;;;13.67;6.53;;;;;;;10.32;61.18;101008.38;125652;1099;104453;-78
2021/04/28 10:33:27;;;;;;;13.67;7.00;;;;;;;10.39;61.13;101006.95;125685;1098;104221;-78
2021/04/28 10:35:57;;;;;;;14.45;6.83;;;;;;;10.40;61.59;101012.27;125759;1098;104155;-76
2021/04/28 10:38:27;;;;;;;14.60;7.00;;;;;;;10.38;61.22;101015.67;125648;1099;104184;-78
2021/04/28 10:40:56;;;;;;;12.17;5.77;;;;;;;10.22;60.39;101014.03;125619;1099;104241;-76
2021/04/28 10:43:35;;;;;;;12.70;6.10;;;;;;;10.13;59.63;101010.98;125709;1099;104640;-77
2021/04/28 10:46:24;;;;;;;12.37;5.83;;;;;;;10.11;60.64;101005.67;125625;1099;104274;-77
2021/04/28 10:48:55;;;;;;;13.90;6.70;;;;;;;10.15;60.93;101010.24;125620;1099;106221;-77
2021/04/28 10:51:35;;;;;;;12.37;6.40;;;;;;;10.18;60.73;101009.50;125653;1099;104155;-78
2021/04/28 10:54:22;;;;;;;13.30;6.83;;;;;;;10.22;60.53;101003.55;125558;1099;104201;-77
2021/04/28 10:57:07;;;;;;;11.25;6.05;;;;;;;10.13;59.88;101009.28;125524;1099;104166;-76
2021/04/28 10:59:36;;;;;;;;;;;;;;;10.03;59.97;101005.33;125619;1099;104184;-77
2021/04/28 11:02:10;;;;;;;10.17;5.90;;;;;;;10.07;60.05;101002.03;125612;1097;104166;-76
2021/04/28 11:04:44;;;;;;;12.93;6.63;;;;;;;9.96;60.25;101003.27;125632;1099;104171;-76
2021/04/28 11:07:15;;;;;;;14.03;5.93;;;;;;;9.99;59.90;101000.79;125564;1099;104156;-76
2021/04/28 11:09:52;;;;;;;12.17;6.43;;;;;;;10.02;59.27;101000.93;125548;1099;104206;-76
2021/04/28 11:12:21;;;;;;;12.20;6.33;;;;;;;9.98;60.17;100995.47;125629;1096;104268;-75
2021/04/28 11:15:00;;;;;;;12.50;6.70;;;;;;;10.01;59.50;100998.23;125638;1099;104294;-75
2021/04/28 11:17:32;;;;;;;11.97;6.63;;;;;;;10.07;59.33;100988.03;125717;1099;104159;-76
2021/04/28 11:20:20;;;;;;;13.23;7.00;;;;;;;10.27;59.45;100986.31;125520;1099;104290;-76
2021/04/28 11:23:08;;;;;;;14.33;7.33;;;;;;;10.43;59.79;100962.56;125558;1099;104191;-75
2021/04/28 11:25:39;;;;;;;11.10;6.35;;;;;;;10.81;59.31;100972.91;125403;1099;104248;-75
2021/04/28 11:28:10;;;;;;;14.70;6.70;;;;;;;10.92;59.24;100968.11;125510;1099;104210;-75